Terminal Aerodrome Forecast
Issued by NWS

Home | Current Version | Previous Version | Text Only | Print | Product List | Glossary On
Versions: 1 2 3 4 5 6 7 8 9 10 11 12 13 14 15 16 17 18 19 20 21 22 23 24 25 26 27 28
000
FTAK31 PAFA 181133
TAFAGA
TAF
PAGA 181133Z 1812/1912 32004KT P6SM BKN080 OVC090
     FM190000 36006KT P6SM VCSH BKN050
     FM190600 05005KT 5SM -SHRA BKN050 OVC100=

USA.gov is the U.S. government's official web portal to all federal, state and local government web resources and services.